sensor_id;sensor_type;location;lat;lon;timestamp;P1;durP1;ratioP1;P2;durP2;ratioP2
13252;SDS011;6693;54.370;10.132;2023-06-10T00:00:18;8.45;;;2.00;;
13252;SDS011;6693;54.370;10.132;2023-06-10T00:01:22;6.22;;;1.90;;
13252;SDS011;6693;54.370;10.132;2023-06-10T00:03:28;6.82;;;1.95;;
13252;SDS011;6693;54.370;10.132;2023-06-10T00:04:29;6.18;;;1.67;;
13252;SDS011;6693;54.370;10.132;2023-06-10T00:05:32;8.50;;;1.77;;
13252;SDS011;6693;54.370;10.132;2023-06-10T00:06:37;5.68;;;2.03;;
13252;SDS011;6693;54.370;10.132;2023-06-10T00:07:40;7.18;;;1.63;;
13252;SDS011;6693;54.370;10.132;2023-06-10T00:08:41;7.30;;;1.88;;
13252;SDS011;6693;54.370;10.132;2023-06-10T00:09:47;10.00;;;1.92;;
13252;SDS011;6693;54.370;10.132;2023-06-10T00:10:47;7.10;;;1.83;;
13252;SDS011;6693;54.370;10.132;2023-06-10T00:11:51;6.95;;;1.73;;
13252;SDS011;6693;54.370;10.132;2023-06-10T00:12:51;7.35;;;1.92;;
13252;SDS011;6693;54.370;10.132;2023-06-10T00:13:55;7.25;;;2.22;;
13252;SDS011;6693;54.370;10.132;2023-06-10T00:14:55;7.53;;;1.95;;
13252;SDS011;6693;54.370;10.132;2023-06-10T00:15:59;6.55;;;2.13;;
13252;SDS011;6693;54.370;10.132;2023-06-10T00:16:59;7.88;;;1.75;;
13252;SDS011;6693;54.370;10.132;2023-06-10T00:18:03;6.47;;;1.63;;
13252;SDS011;6693;54.370;10.132;2023-06-10T00:19:04;7.75;;;1.60;;
13252;SDS011;6693;54.370;10.132;2023-06-10T00:20:08;7.10;;;1.73;;
13252;SDS011;6693;54.370;10.132;2023-06-10T00:21:11;8.13;;;2.00;;
13252;SDS011;6693;54.370;10.132;2023-06-10T00:22:18;7.97;;;1.83;;
13252;SDS011;6693;54.370;10.132;2023-06-10T00:23:18;8.27;;;1.70;;
13252;SDS011;6693;54.370;10.132;2023-06-10T00:24:22;6.40;;;1.70;;
13252;SDS011;6693;54.370;10.132;2023-06-10T00:25:23;8.07;;;2.30;;
13252;SDS011;6693;54.370;10.132;2023-06-10T00:26:26;5.82;;;1.70;;
13252;SDS011;6693;54.370;10.132;2023-06-10T00:27:27;7.90;;;1.85;;
13252;SDS011;6693;54.370;10.132;2023-06-10T00:28:35;5.93;;;1.92;;
13252;SDS011;6693;54.370;10.132;2023-06-10T00:29:35;7.80;;;2.03;;
13252;SDS011;6693;54.370;10.132;2023-06-10T00:30:39;7.07;;;1.67;;
13252;SDS011;6693;54.370;10.132;2023-06-10T00:31:39;8.38;;;2.03;;
13252;SDS011;6693;54.370;10.132;2023-06-10T00:32:42;7.60;;;2.33;;
13252;SDS011;6693;54.370;10.132;2023-06-10T00:33:43;8.43;;;1.70;;
13252;SDS011;6693;54.370;10.132;2023-06-10T00:34:46;7.63;;;1.90;;
13252;SDS011;6693;54.370;10.132;2023-06-10T00:35:47;6.07;;;1.70;;
13252;SDS011;6693;54.370;10.132;2023-06-10T00:36:50;7.15;;;1.63;;
13252;SDS011;6693;54.370;10.132;2023-06-10T00:37:53;7.10;;;1.90;;
13252;SDS011;6693;54.370;10.132;2023-06-10T00:38:56;8.13;;;1.63;;
13252;SDS011;6693;54.370;10.132;2023-06-10T00:39:57;7.75;;;2.00;;
13252;SDS011;6693;54.370;10.132;2023-06-10T00:41:00;6.40;;;1.48;;
13252;SDS011;6693;54.370;10.132;2023-06-10T00:42:01;6.25;;;1.50;;
13252;SDS011;6693;54.370;10.132;2023-06-10T00:43:07;7.70;;;1.73;;
13252;SDS011;6693;54.370;10.132;2023-06-10T00:44:07;5.82;;;1.58;;
13252;SDS011;6693;54.370;10.132;2023-06-10T00:45:10;6.85;;;1.77;;
13252;SDS011;6693;54.370;10.132;2023-06-10T00:46:11;6.07;;;1.55;;
13252;SDS011;6693;54.370;10.132;2023-06-10T00:47:15;7.10;;;1.40;;
13252;SDS011;6693;54.370;10.132;2023-06-10T00:48:16;6.43;;;1.60;;
13252;SDS011;6693;54.370;10.132;2023-06-10T00:49:19;7.05;;;1.75;;
13252;SDS011;6693;54.370;10.132;2023-06-10T00:50:19;7.70;;;1.60;;
13252;SDS011;6693;54.370;10.132;2023-06-10T00:51:22;7.40;;;1.60;;
13252;SDS011;6693;54.370;10.132;2023-06-10T00:52:23;8.68;;;1.92;;
13252;SDS011;6693;54.370;10.132;2023-06-10T00:53:31;7.18;;;1.50;;
13252;SDS011;6693;54.370;10.132;2023-06-10T00:54:32;7.35;;;1.90;;
13252;SDS011;6693;54.370;10.132;2023-06-10T00:55:35;6.30;;;1.45;;
13252;SDS011;6693;54.370;10.132;2023-06-10T00:56:36;7.55;;;1.67;;
13252;SDS011;6693;54.370;10.132;2023-06-10T00:57:40;9.40;;;1.63;;
13252;SDS011;6693;54.370;10.132;2023-06-10T00:58:40;8.40;;;1.65;;
13252;SDS011;6693;54.370;10.132;2023-06-10T00:59:45;6.32;;;1.42;;
13252;SDS011;6693;54.370;10.132;2023-06-10T01:00:48;7.85;;;1.83;;
13252;SDS011;6693;54.370;10.132;2023-06-10T01:01:53;7.38;;;1.27;;
13252;SDS011;6693;54.370;10.132;2023-06-10T01:02:55;6.10;;;1.15;;
13252;SDS011;6693;54.370;10.132;2023-06-10T01:03:58;7.95;;;1.50;;
13252;SDS011;6693;54.370;10.132;2023-06-10T01:04:59;8.30;;;1.48;;
13252;SDS011;6693;54.370;10.132;2023-06-10T01:06:06;5.15;;;1.52;;
13252;SDS011;6693;54.370;10.132;2023-06-10T01:07:15;8.07;;;1.73;;
13252;SDS011;6693;54.370;10.132;2023-06-10T01:08:23;7.05;;;1.48;;
13252;SDS011;6693;54.370;10.132;2023-06-10T01:09:33;5.53;;;1.23;;
13252;SDS011;6693;54.370;10.132;2023-06-10T01:10:43;6.35;;;1.25;;
13252;SDS011;6693;54.370;10.132;2023-06-10T01:11:49;9.15;;;1.50;;
13252;SDS011;6693;54.370;10.132;2023-06-10T01:12:58;5.88;;;1.23;;
13252;SDS011;6693;54.370;10.132;2023-06-10T01:14:02;8.30;;;1.67;;
13252;SDS011;6693;54.370;10.132;2023-06-10T01:15:08;6.07;;;1.55;;
13252;SDS011;6693;54.370;10.132;2023-06-10T01:16:10;7.90;;;1.40;;
13252;SDS011;6693;54.370;10.132;2023-06-10T01:17:13;5.72;;;1.17;;
13252;SDS011;6693;54.370;10.132;2023-06-10T01:18:16;7.78;;;1.42;;
13252;SDS011;6693;54.370;10.132;2023-06-10T01:19:19;8.48;;;1.73;;
13252;SDS011;6693;54.370;10.132;2023-06-10T01:20:24;6.28;;;1.13;;
13252;SDS011;6693;54.370;10.132;2023-06-10T01:21:31;7.00;;;1.42;;
13252;SDS011;6693;54.370;10.132;2023-06-10T01:22:32;6.15;;;1.33;;
13252;SDS011;6693;54.370;10.132;2023-06-10T01:23:36;6.60;;;1.20;;
13252;SDS011;6693;54.370;10.132;2023-06-10T01:24:37;7.38;;;1.30;;
13252;SDS011;6693;54.370;10.132;2023-06-10T01:25:41;4.53;;;0.93;;
13252;SDS011;6693;54.370;10.132;2023-06-10T01:26:44;6.10;;;1.00;;
13252;SDS011;6693;54.370;10.132;2023-06-10T01:27:48;6.18;;;1.30;;
13252;SDS011;6693;54.370;10.132;2023-06-10T01:28:51;5.13;;;1.02;;
13252;SDS011;6693;54.370;10.132;2023-06-10T01:29:58;9.75;;;1.58;;
13252;SDS011;6693;54.370;10.132;2023-06-10T01:31:05;5.95;;;1.45;;
13252;SDS011;6693;54.370;10.132;2023-06-10T01:32:12;7.78;;;1.30;;
13252;SDS011;6693;54.370;10.132;2023-06-10T01:33:17;7.07;;;1.42;;
13252;SDS011;6693;54.370;10.132;2023-06-10T01:34:21;6.25;;;1.48;;
13252;SDS011;6693;54.370;10.132;2023-06-10T01:35:24;6.40;;;1.35;;
13252;SDS011;6693;54.370;10.132;2023-06-10T01:36:30;6.07;;;1.33;;
13252;SDS011;6693;54.370;10.132;2023-06-10T01:37:32;7.30;;;1.13;;
13252;SDS011;6693;54.370;10.132;2023-06-10T01:38:36;6.85;;;1.30;;
13252;SDS011;6693;54.370;10.132;2023-06-10T01:39:41;6.63;;;1.40;;
13252;SDS011;6693;54.370;10.132;2023-06-10T01:40:45;7.63;;;1.48;;
13252;SDS011;6693;54.370;10.132;2023-06-10T01:41:46;6.30;;;1.52;;
13252;SDS011;6693;54.370;10.132;2023-06-10T01:42:50;5.10;;;1.23;;
13252;SDS011;6693;54.370;10.132;2023-06-10T01:44:55;5.30;;;1.27;;
13252;SDS011;6693;54.370;10.132;2023-06-10T01:45:55;7.80;;;1.35;;
13252;SDS011;6693;54.370;10.132;2023-06-10T01:46:59;5.35;;;1.27;;
13252;SDS011;6693;54.370;10.132;2023-06-10T01:47:59;6.55;;;1.40;;
13252;SDS011;6693;54.370;10.132;2023-06-10T01:49:02;6.03;;;1.05;;
13252;SDS011;6693;54.370;10.132;2023-06-10T01:50:03;6.47;;;1.23;;
13252;SDS011;6693;54.370;10.132;2023-06-10T01:51:07;5.85;;;1.30;;
13252;SDS011;6693;54.370;10.132;2023-06-10T01:52:10;7.55;;;1.25;;
13252;SDS011;6693;54.370;10.132;2023-06-10T01:53:14;6.68;;;1.45;;
13252;SDS011;6693;54.370;10.132;2023-06-10T01:54:14;5.95;;;1.15;;
13252;SDS011;6693;54.370;10.132;2023-06-10T01:55:17;6.78;;;1.30;;
13252;SDS011;6693;54.370;10.132;2023-06-10T01:56:18;5.00;;;1.17;;
13252;SDS011;6693;54.370;10.132;2023-06-10T01:57:21;7.30;;;1.52;;
13252;SDS011;6693;54.370;10.132;2023-06-10T01:58:22;8.45;;;1.40;;
13252;SDS011;6693;54.370;10.132;2023-06-10T01:59:25;5.72;;;1.40;;
13252;SDS011;6693;54.370;10.132;2023-06-10T02:00:26;7.38;;;2.03;;
13252;SDS011;6693;54.370;10.132;2023-06-10T02:01:29;6.32;;;1.23;;
13252;SDS011;6693;54.370;10.132;2023-06-10T02:02:30;6.28;;;1.15;;
13252;SDS011;6693;54.370;10.132;2023-06-10T02:03:33;5.95;;;1.15;;
13252;SDS011;6693;54.370;10.132;2023-06-10T02:04:34;6.80;;;1.48;;
13252;SDS011;6693;54.370;10.132;2023-06-10T02:05:37;6.95;;;1.23;;
13252;SDS011;6693;54.370;10.132;2023-06-10T02:06:38;6.72;;;1.50;;
13252;SDS011;6693;54.370;10.132;2023-06-10T02:07:44;7.20;;;1.13;;
13252;SDS011;6693;54.370;10.132;2023-06-10T02:08:45;7.05;;;1.38;;
13252;SDS011;6693;54.370;10.132;2023-06-10T02:09:48;4.85;;;1.23;;
13252;SDS011;6693;54.370;10.132;2023-06-10T02:10:49;6.55;;;1.30;;
13252;SDS011;6693;54.370;10.132;2023-06-10T02:11:52;6.50;;;1.23;;
13252;SDS011;6693;54.370;10.132;2023-06-10T02:12:52;5.90;;;1.02;;
13252;SDS011;6693;54.370;10.132;2023-06-10T02:13:56;7.38;;;1.30;;
13252;SDS011;6693;54.370;10.132;2023-06-10T02:14:56;6.53;;;1.20;;
13252;SDS011;6693;54.370;10.132;2023-06-10T02:15:59;5.63;;;1.23;;
13252;SDS011;6693;54.370;10.132;2023-06-10T02:17:01;7.57;;;1.30;;
13252;SDS011;6693;54.370;10.132;2023-06-10T02:18:04;5.57;;;1.40;;
13252;SDS011;6693;54.370;10.132;2023-06-10T02:19:05;9.77;;;1.27;;
13252;SDS011;6693;54.370;10.132;2023-06-10T02:20:09;5.80;;;1.23;;
13252;SDS011;6693;54.370;10.132;2023-06-10T02:21:10;6.63;;;1.60;;
13252;SDS011;6693;54.370;10.132;2023-06-10T02:22:14;6.55;;;1.15;;
13252;SDS011;6693;54.370;10.132;2023-06-10T02:23:17;6.32;;;1.15;;
13252;SDS011;6693;54.370;10.132;2023-06-10T02:24:20;5.65;;;1.17;;
13252;SDS011;6693;54.370;10.132;2023-06-10T02:25:21;7.85;;;1.30;;
13252;SDS011;6693;54.370;10.132;2023-06-10T02:26:24;5.90;;;1.05;;
13252;SDS011;6693;54.370;10.132;2023-06-10T02:27:26;5.65;;;1.20;;
13252;SDS011;6693;54.370;10.132;2023-06-10T02:28:29;5.38;;;0.93;;
13252;SDS011;6693;54.370;10.132;2023-06-10T02:29:29;6.63;;;1.60;;
13252;SDS011;6693;54.370;10.132;2023-06-10T02:30:32;7.03;;;1.20;;
13252;SDS011;6693;54.370;10.132;2023-06-10T02:31:33;6.75;;;1.38;;
13252;SDS011;6693;54.370;10.132;2023-06-10T02:32:37;7.25;;;1.20;;
13252;SDS011;6693;54.370;10.132;2023-06-10T02:33:38;4.82;;;0.95;;
13252;SDS011;6693;54.370;10.132;2023-06-10T02:34:42;6.63;;;0.93;;
13252;SDS011;6693;54.370;10.132;2023-06-10T02:35:43;6.65;;;1.23;;
13252;SDS011;6693;54.370;10.132;2023-06-10T02:36:46;4.18;;;1.17;;
13252;SDS011;6693;54.370;10.132;2023-06-10T02:37:49;6.18;;;0.95;;
13252;SDS011;6693;54.370;10.132;2023-06-10T02:38:55;4.60;;;0.70;;
13252;SDS011;6693;54.370;10.132;2023-06-10T02:39:55;6.43;;;1.13;;
13252;SDS011;6693;54.370;10.132;2023-06-10T02:40:58;6.65;;;1.13;;
13252;SDS011;6693;54.370;10.132;2023-06-10T02:41:59;5.88;;;0.85;;
13252;SDS011;6693;54.370;10.132;2023-06-10T02:43:02;5.93;;;1.42;;
13252;SDS011;6693;54.370;10.132;2023-06-10T02:44:03;7.03;;;1.25;;
13252;SDS011;6693;54.370;10.132;2023-06-10T02:45:07;6.70;;;1.60;;
13252;SDS011;6693;54.370;10.132;2023-06-10T02:46:08;7.45;;;1.63;;
13252;SDS011;6693;54.370;10.132;2023-06-10T02:47:11;7.28;;;1.20;;
13252;SDS011;6693;54.370;10.132;2023-06-10T02:48:12;7.45;;;1.23;;
13252;SDS011;6693;54.370;10.132;2023-06-10T02:49:15;7.38;;;1.02;;
13252;SDS011;6693;54.370;10.132;2023-06-10T02:50:16;5.75;;;0.82;;
13252;SDS011;6693;54.370;10.132;2023-06-10T02:51:19;6.15;;;1.00;;
13252;SDS011;6693;54.370;10.132;2023-06-10T02:52:21;7.13;;;1.02;;
13252;SDS011;6693;54.370;10.132;2023-06-10T02:53:25;4.40;;;0.90;;
13252;SDS011;6693;54.370;10.132;2023-06-10T02:54:28;6.20;;;1.30;;
13252;SDS011;6693;54.370;10.132;2023-06-10T02:55:31;7.70;;;1.08;;
13252;SDS011;6693;54.370;10.132;2023-06-10T02:56:32;5.28;;;1.00;;
13252;SDS011;6693;54.370;10.132;2023-06-10T02:57:36;6.45;;;1.20;;
13252;SDS011;6693;54.370;10.132;2023-06-10T02:58:37;4.30;;;0.90;;
13252;SDS011;6693;54.370;10.132;2023-06-10T02:59:40;7.43;;;1.40;;
13252;SDS011;6693;54.370;10.132;2023-06-10T03:00:41;4.35;;;0.82;;
13252;SDS011;6693;54.370;10.132;2023-06-10T03:01:45;6.05;;;1.10;;
13252;SDS011;6693;54.370;10.132;2023-06-10T03:02:47;4.65;;;1.10;;
13252;SDS011;6693;54.370;10.132;2023-06-10T03:03:52;6.75;;;1.23;;
13252;SDS011;6693;54.370;10.132;2023-06-10T03:04:52;6.47;;;1.05;;
13252;SDS011;6693;54.370;10.132;2023-06-10T03:05:56;7.40;;;1.25;;
13252;SDS011;6693;54.370;10.132;2023-06-10T03:06:56;8.40;;;1.60;;
13252;SDS011;6693;54.370;10.132;2023-06-10T03:08:04;5.45;;;1.00;;
13252;SDS011;6693;54.370;10.132;2023-06-10T03:09:04;6.68;;;0.90;;
13252;SDS011;6693;54.370;10.132;2023-06-10T03:10:10;4.95;;;1.00;;
13252;SDS011;6693;54.370;10.132;2023-06-10T03:11:11;6.53;;;0.80;;
13252;SDS011;6693;54.370;10.132;2023-06-10T03:12:14;6.57;;;0.98;;
13252;SDS011;6693;54.370;10.132;2023-06-10T03:13:14;6.22;;;0.90;;
13252;SDS011;6693;54.370;10.132;2023-06-10T03:14:18;8.55;;;1.40;;
13252;SDS011;6693;54.370;10.132;2023-06-10T03:15:18;6.13;;;1.00;;
13252;SDS011;6693;54.370;10.132;2023-06-10T03:16:22;8.18;;;1.48;;
13252;SDS011;6693;54.370;10.132;2023-06-10T03:17:22;6.10;;;0.85;;
13252;SDS011;6693;54.370;10.132;2023-06-10T03:18:26;5.72;;;0.93;;
13252;SDS011;6693;54.370;10.132;2023-06-10T03:19:27;8.48;;;1.10;;
13252;SDS011;6693;54.370;10.132;2023-06-10T03:20:30;5.50;;;0.88;;
13252;SDS011;6693;54.370;10.132;2023-06-10T03:21:31;4.53;;;1.13;;
13252;SDS011;6693;54.370;10.132;2023-06-10T03:22:34;6.10;;;1.13;;
13252;SDS011;6693;54.370;10.132;2023-06-10T03:23:35;6.70;;;1.17;;
13252;SDS011;6693;54.370;10.132;2023-06-10T03:24:38;5.38;;;1.02;;
13252;SDS011;6693;54.370;10.132;2023-06-10T03:27:46;7.72;;;1.10;;
13252;SDS011;6693;54.370;10.132;2023-06-10T03:28:49;5.63;;;1.13;;
13252;SDS011;6693;54.370;10.132;2023-06-10T03:29:50;4.80;;;0.82;;
13252;SDS011;6693;54.370;10.132;2023-06-10T03:30:53;5.10;;;0.95;;
13252;SDS011;6693;54.370;10.132;2023-06-10T03:31:54;5.70;;;1.05;;
13252;SDS011;6693;54.370;10.132;2023-06-10T03:32:57;7.20;;;1.17;;
13252;SDS011;6693;54.370;10.132;2023-06-10T03:33:57;4.85;;;0.93;;
13252;SDS011;6693;54.370;10.132;2023-06-10T03:35:01;6.10;;;1.20;;
13252;SDS011;6693;54.370;10.132;2023-06-10T03:36:01;5.75;;;1.10;;
13252;SDS011;6693;54.370;10.132;2023-06-10T03:37:05;7.50;;;0.98;;
13252;SDS011;6693;54.370;10.132;2023-06-10T03:38:08;5.15;;;0.70;;
13252;SDS011;6693;54.370;10.132;2023-06-10T03:39:09;5.80;;;0.85;;
13252;SDS011;6693;54.370;10.132;2023-06-10T03:40:13;5.78;;;0.75;;
13252;SDS011;6693;54.370;10.132;2023-06-10T03:41:16;6.72;;;0.80;;
13252;SDS011;6693;54.370;10.132;2023-06-10T03:42:19;5.60;;;1.25;;
13252;SDS011;6693;54.370;10.132;2023-06-10T03:43:20;4.35;;;0.73;;
13252;SDS011;6693;54.370;10.132;2023-06-10T03:44:23;4.30;;;1.17;;
13252;SDS011;6693;54.370;10.132;2023-06-10T03:45:24;7.65;;;1.35;;
13252;SDS011;6693;54.370;10.132;2023-06-10T03:46:28;6.20;;;0.95;;
13252;SDS011;6693;54.370;10.132;2023-06-10T03:47:32;4.68;;;0.95;;
13252;SDS011;6693;54.370;10.132;2023-06-10T03:48:36;5.40;;;0.85;;
13252;SDS011;6693;54.370;10.132;2023-06-10T03:49:38;6.97;;;0.93;;
13252;SDS011;6693;54.370;10.132;2023-06-10T03:50:42;7.22;;;1.13;;
13252;SDS011;6693;54.370;10.132;2023-06-10T03:51:42;7.25;;;1.20;;
13252;SDS011;6693;54.370;10.132;2023-06-10T03:52:45;5.60;;;0.82;;
13252;SDS011;6693;54.370;10.132;2023-06-10T03:53:47;6.40;;;0.80;;
13252;SDS011;6693;54.370;10.132;2023-06-10T03:54:50;5.45;;;0.60;;
13252;SDS011;6693;54.370;10.132;2023-06-10T03:55:51;4.72;;;0.63;;
13252;SDS011;6693;54.370;10.132;2023-06-10T03:56:56;7.63;;;1.10;;
13252;SDS011;6693;54.370;10.132;2023-06-10T03:57:57;5.00;;;1.17;;
13252;SDS011;6693;54.370;10.132;2023-06-10T03:59:00;4.50;;;0.82;;
13252;SDS011;6693;54.370;10.132;2023-06-10T04:00:01;5.78;;;0.85;;
13252;SDS011;6693;54.370;10.132;2023-06-10T04:01:10;4.90;;;0.80;;
13252;SDS011;6693;54.370;10.132;2023-06-10T04:02:14;5.30;;;0.82;;
13252;SDS011;6693;54.370;10.132;2023-06-10T04:03:15;6.03;;;1.00;;
13252;SDS011;6693;54.370;10.132;2023-06-10T04:04:21;5.18;;;0.82;;
13252;SDS011;6693;54.370;10.132;2023-06-10T04:05:21;5.40;;;1.05;;
13252;SDS011;6693;54.370;10.132;2023-06-10T04:06:25;6.03;;;0.90;;
13252;SDS011;6693;54.370;10.132;2023-06-10T04:07:25;4.80;;;0.75;;
13252;SDS011;6693;54.370;10.132;2023-06-10T04:08:28;7.15;;;1.00;;
13252;SDS011;6693;54.370;10.132;2023-06-10T04:09:29;5.75;;;1.25;;
13252;SDS011;6693;54.370;10.132;2023-06-10T04:10:33;6.53;;;1.00;;
13252;SDS011;6693;54.370;10.132;2023-06-10T04:11:33;6.22;;;0.80;;
13252;SDS011;6693;54.370;10.132;2023-06-10T04:12:39;4.90;;;1.08;;
13252;SDS011;6693;54.370;10.132;2023-06-10T04:13:40;5.43;;;0.77;;
13252;SDS011;6693;54.370;10.132;2023-06-10T04:14:43;5.10;;;1.02;;
13252;SDS011;6693;54.370;10.132;2023-06-10T04:15:44;6.47;;;0.98;;
13252;SDS011;6693;54.370;10.132;2023-06-10T04:16:47;6.70;;;0.95;;
13252;SDS011;6693;54.370;10.132;2023-06-10T04:17:50;4.65;;;0.90;;
13252;SDS011;6693;54.370;10.132;2023-06-10T04:18:53;5.20;;;0.75;;
13252;SDS011;6693;54.370;10.132;2023-06-10T04:19:54;6.05;;;1.00;;
13252;SDS011;6693;54.370;10.132;2023-06-10T04:20:58;5.45;;;0.85;;
13252;SDS011;6693;54.370;10.132;2023-06-10T04:22:00;7.57;;;1.02;;
13252;SDS011;6693;54.370;10.132;2023-06-10T04:23:03;4.63;;;0.90;;
13252;SDS011;6693;54.370;10.132;2023-06-10T04:24:04;7.15;;;0.95;;
13252;SDS011;6693;54.370;10.132;2023-06-10T04:25:08;4.20;;;0.90;;
13252;SDS011;6693;54.370;10.132;2023-06-10T04:26:09;5.50;;;1.02;;
13252;SDS011;6693;54.370;10.132;2023-06-10T04:27:12;5.28;;;0.82;;
13252;SDS011;6693;54.370;10.132;2023-06-10T04:28:15;5.10;;;1.00;;
13252;SDS011;6693;54.370;10.132;2023-06-10T04:29:19;6.97;;;0.82;;
13252;SDS011;6693;54.370;10.132;2023-06-10T04:30:19;6.15;;;0.85;;
13252;SDS011;6693;54.370;10.132;2023-06-10T04:31:23;5.78;;;0.73;;
13252;SDS011;6693;54.370;10.132;2023-06-10T04:32:23;4.63;;;0.93;;
13252;SDS011;6693;54.370;10.132;2023-06-10T04:33:27;5.57;;;0.90;;
13252;SDS011;6693;54.370;10.132;2023-06-10T04:34:28;4.93;;;0.73;;
13252;SDS011;6693;54.370;10.132;2023-06-10T04:35:31;4.93;;;0.80;;
13252;SDS011;6693;54.370;10.132;2023-06-10T04:36:32;6.47;;;0.90;;
13252;SDS011;6693;54.370;10.132;2023-06-10T04:37:35;6.72;;;0.93;;
13252;SDS011;6693;54.370;10.132;2023-06-10T04:38:36;6.88;;;0.93;;
13252;SDS011;6693;54.370;10.132;2023-06-10T04:39:40;5.38;;;1.00;;
13252;SDS011;6693;54.370;10.132;2023-06-10T04:40:41;5.75;;;0.73;;
13252;SDS011;6693;54.370;10.132;2023-06-10T04:41:44;6.57;;;0.68;;
13252;SDS011;6693;54.370;10.132;2023-06-10T04:42:45;5.95;;;0.80;;
13252;SDS011;6693;54.370;10.132;2023-06-10T04:43:51;5.38;;;0.93;;
13252;SDS011;6693;54.370;10.132;2023-06-10T04:44:51;5.90;;;0.98;;
13252;SDS011;6693;54.370;10.132;2023-06-10T04:45:55;5.55;;;1.30;;
13252;SDS011;6693;54.370;10.132;2023-06-10T04:46:55;6.45;;;0.70;;
13252;SDS011;6693;54.370;10.132;2023-06-10T04:47:58;8.25;;;1.10;;
13252;SDS011;6693;54.370;10.132;2023-06-10T04:48:59;5.50;;;0.63;;
13252;SDS011;6693;54.370;10.132;2023-06-10T04:50:02;4.32;;;0.93;;
13252;SDS011;6693;54.370;10.132;2023-06-10T04:51:05;7.97;;;1.27;;
13252;SDS011;6693;54.370;10.132;2023-06-10T04:52:08;4.55;;;0.93;;
13252;SDS011;6693;54.370;10.132;2023-06-10T04:53:09;6.90;;;0.93;;
13252;SDS011;6693;54.370;10.132;2023-06-10T04:54:12;5.47;;;1.02;;
13252;SDS011;6693;54.370;10.132;2023-06-10T04:55:12;6.45;;;0.85;;
13252;SDS011;6693;54.370;10.132;2023-06-10T04:56:16;5.25;;;0.82;;
13252;SDS011;6693;54.370;10.132;2023-06-10T04:57:16;6.38;;;1.08;;
13252;SDS011;6693;54.370;10.132;2023-06-10T04:58:20;6.07;;;0.85;;
13252;SDS011;6693;54.370;10.132;2023-06-10T04:59:23;4.95;;;0.75;;
13252;SDS011;6693;54.370;10.132;2023-06-10T05:00:26;7.47;;;0.95;;
13252;SDS011;6693;54.370;10.132;2023-06-10T05:01:27;6.93;;;1.00;;
13252;SDS011;6693;54.370;10.132;2023-06-10T05:02:30;5.07;;;0.85;;
13252;SDS011;6693;54.370;10.132;2023-06-10T05:03:31;5.75;;;0.82;;
13252;SDS011;6693;54.370;10.132;2023-06-10T05:04:34;7.50;;;0.90;;
13252;SDS011;6693;54.370;10.132;2023-06-10T05:05:35;10.77;;;1.48;;
13252;SDS011;6693;54.370;10.132;2023-06-10T05:06:38;6.60;;;0.85;;
13252;SDS011;6693;54.370;10.132;2023-06-10T05:07:38;5.85;;;1.15;;
13252;SDS011;6693;54.370;10.132;2023-06-10T05:08:42;6.15;;;0.95;;
13252;SDS011;6693;54.370;10.132;2023-06-10T05:09:42;6.43;;;0.82;;
13252;SDS011;6693;54.370;10.132;2023-06-10T05:10:45;5.28;;;0.65;;
13252;SDS011;6693;54.370;10.132;2023-06-10T05:11:46;5.00;;;0.82;;
13252;SDS011;6693;54.370;10.132;2023-06-10T05:12:49;4.93;;;1.10;;
13252;SDS011;6693;54.370;10.132;2023-06-10T05:13:50;5.38;;;0.80;;
13252;SDS011;6693;54.370;10.132;2023-06-10T05:14:56;7.30;;;1.40;;
13252;SDS011;6693;54.370;10.132;2023-06-10T05:15:56;6.43;;;0.88;;
13252;SDS011;6693;54.370;10.132;2023-06-10T05:17:00;5.72;;;1.00;;
13252;SDS011;6693;54.370;10.132;2023-06-10T05:18:00;5.32;;;1.02;;
13252;SDS011;6693;54.370;10.132;2023-06-10T05:19:04;6.53;;;0.80;;
13252;SDS011;6693;54.370;10.132;2023-06-10T05:20:06;7.00;;;0.80;;
13252;SDS011;6693;54.370;10.132;2023-06-10T05:21:09;5.28;;;0.70;;
13252;SDS011;6693;54.370;10.132;2023-06-10T05:22:10;5.63;;;0.90;;
13252;SDS011;6693;54.370;10.132;2023-06-10T05:23:14;4.40;;;0.60;;
13252;SDS011;6693;54.370;10.132;2023-06-10T05:24:15;11.10;;;0.85;;
13252;SDS011;6693;54.370;10.132;2023-06-10T05:25:18;5.90;;;1.05;;
13252;SDS011;6693;54.370;10.132;2023-06-10T05:26:19;6.75;;;0.82;;
13252;SDS011;6693;54.370;10.132;2023-06-10T05:27:22;8.00;;;1.13;;
13252;SDS011;6693;54.370;10.132;2023-06-10T05:28:23;8.90;;;1.00;;
13252;SDS011;6693;54.370;10.132;2023-06-10T05:29:26;5.68;;;0.93;;
13252;SDS011;6693;54.370;10.132;2023-06-10T05:30:30;4.28;;;0.95;;
13252;SDS011;6693;54.370;10.132;2023-06-10T05:31:33;4.68;;;0.63;;
13252;SDS011;6693;54.370;10.132;2023-06-10T05:32:33;5.90;;;1.15;;
13252;SDS011;6693;54.370;10.132;2023-06-10T05:33:37;4.38;;;0.63;;
13252;SDS011;6693;54.370;10.132;2023-06-10T05:34:37;6.47;;;1.30;;
13252;SDS011;6693;54.370;10.132;2023-06-10T05:35:40;4.25;;;1.08;;
13252;SDS011;6693;54.370;10.132;2023-06-10T05:36:41;4.28;;;0.63;;
13252;SDS011;6693;54.370;10.132;2023-06-10T05:37:44;8.23;;;1.00;;
13252;SDS011;6693;54.370;10.132;2023-06-10T05:38:45;6.53;;;0.80;;
13252;SDS011;6693;54.370;10.132;2023-06-10T05:39:49;4.90;;;0.90;;
13252;SDS011;6693;54.370;10.132;2023-06-10T05:40:49;6.95;;;1.08;;
13252;SDS011;6693;54.370;10.132;2023-06-10T05:41:53;5.65;;;0.90;;
13252;SDS011;6693;54.370;10.132;2023-06-10T05:42:53;7.70;;;1.00;;
13252;SDS011;6693;54.370;10.132;2023-06-10T05:43:56;6.43;;;1.23;;
13252;SDS011;6693;54.370;10.132;2023-06-10T05:44:57;5.28;;;0.70;;
13252;SDS011;6693;54.370;10.132;2023-06-10T05:46:03;5.72;;;1.10;;
13252;SDS011;6693;54.370;10.132;2023-06-10T05:47:04;8.23;;;1.20;;
13252;SDS011;6693;54.370;10.132;2023-06-10T05:48:07;6.32;;;1.10;;
13252;SDS011;6693;54.370;10.132;2023-06-10T05:49:08;4.05;;;0.68;;
13252;SDS011;6693;54.370;10.132;2023-06-10T05:50:11;6.82;;;0.90;;
13252;SDS011;6693;54.370;10.132;2023-06-10T05:51:11;7.75;;;1.15;;
13252;SDS011;6693;54.370;10.132;2023-06-10T05:52:15;4.75;;;0.95;;
13252;SDS011;6693;54.370;10.132;2023-06-10T05:53:15;5.03;;;0.90;;
13252;SDS011;6693;54.370;10.132;2023-06-10T05:54:19;5.30;;;0.90;;
13252;SDS011;6693;54.370;10.132;2023-06-10T05:55:19;5.03;;;0.80;;
13252;SDS011;6693;54.370;10.132;2023-06-10T05:56:23;7.55;;;1.10;;
13252;SDS011;6693;54.370;10.132;2023-06-10T05:57:23;5.85;;;0.95;;
13252;SDS011;6693;54.370;10.132;2023-06-10T05:58:26;5.68;;;0.82;;
13252;SDS011;6693;54.370;10.132;2023-06-10T05:59:27;6.93;;;1.10;;
13252;SDS011;6693;54.370;10.132;2023-06-10T06:00:30;8.77;;;1.17;;
13252;SDS011;6693;54.370;10.132;2023-06-10T06:01:33;7.68;;;1.30;;
13252;SDS011;6693;54.370;10.132;2023-06-10T06:02:36;4.25;;;0.82;;
13252;SDS011;6693;54.370;10.132;2023-06-10T06:03:37;5.43;;;1.17;;
13252;SDS011;6693;54.370;10.132;2023-06-10T06:04:40;4.65;;;0.73;;
13252;SDS011;6693;54.370;10.132;2023-06-10T06:05:41;6.63;;;1.00;;
13252;SDS011;6693;54.370;10.132;2023-06-10T06:06:44;6.15;;;0.93;;
13252;SDS011;6693;54.370;10.132;2023-06-10T06:07:45;5.57;;;1.45;;
13252;SDS011;6693;54.370;10.132;2023-06-10T06:08:48;6.28;;;0.88;;
13252;SDS011;6693;54.370;10.132;2023-06-10T06:09:48;7.78;;;1.60;;
13252;SDS011;6693;54.370;10.132;2023-06-10T06:10:51;5.70;;;0.93;;
13252;SDS011;6693;54.370;10.132;2023-06-10T06:11:52;6.65;;;1.52;;
13252;SDS011;6693;54.370;10.132;2023-06-10T06:12:55;5.60;;;1.10;;
13252;SDS011;6693;54.370;10.132;2023-06-10T06:13:56;5.13;;;0.88;;
13252;SDS011;6693;54.370;10.132;2023-06-10T06:14:59;4.18;;;0.85;;
13252;SDS011;6693;54.370;10.132;2023-06-10T06:16:00;6.63;;;1.02;;
13252;SDS011;6693;54.370;10.132;2023-06-10T06:17:06;5.28;;;1.08;;
13252;SDS011;6693;54.370;10.132;2023-06-10T06:18:07;6.82;;;0.90;;
13252;SDS011;6693;54.370;10.132;2023-06-10T06:19:10;4.25;;;0.80;;
13252;SDS011;6693;54.370;10.132;2023-06-10T06:20:11;7.38;;;1.02;;
13252;SDS011;6693;54.370;10.132;2023-06-10T06:21:14;5.97;;;0.80;;